CheckWX is a tool to help pilots better visualize weather data.  It is not intended as a substitute for an official pre-flight weather briefing.

08:08:55 UTC

KGGG TAF
East Texas Regional Airport
Longview, Texas, USA
KGGG 190527Z 1906/2006 00000KT P6SM SKC FM191500 14006KT P6SM FEW040 SCT250

Mar-19@
06:00 UTC

Mar-19 @ 06:00 UTC

Mar-19@
15:00 UTC

Mar-19 @ 15:00 UTC

KGGG 190527Z 1906/2006 00000KT P6SM SKC
Cloud Levels
  • Clear skies

Mar-19@
15:00 UTC

Mar-19 @ 15:00 UTC

Mar-20@
06:00 UTC

Mar-20 @ 06:00 UTC

FM191500 14006KT P6SM FEW040 SCT250

From

From Standard forecast or significant change

Wind
  • 140° at 6 KTS
Cloud Levels
  • Few at 4,000' AGL
  • Scattered at 25,000' AGL